createdAt,value
2019-05-20T00:01:27.425Z,32.00
2019-05-20T00:03:56.371Z,27.13
2019-05-20T00:06:25.265Z,28.77
2019-05-20T00:08:53.982Z,23.30
2019-05-20T00:11:22.844Z,27.43
2019-05-20T00:13:51.701Z,22.97
2019-05-20T00:16:20.627Z,17.33
2019-05-20T00:18:49.521Z,23.70
2019-05-20T00:21:18.398Z,24.43
2019-05-20T00:23:48.951Z,22.40
2019-05-20T00:26:17.911Z,26.53
2019-05-20T00:28:46.722Z,24.60
2019-05-20T00:31:15.826Z,20.90
2019-05-20T00:33:44.918Z,17.23
2019-05-20T00:36:13.780Z,17.10
2019-05-20T00:38:42.574Z,23.30
2019-05-20T00:41:11.361Z,17.67
2019-05-20T00:43:40.279Z,24.53
2019-05-20T00:46:10.699Z,23.67
2019-05-20T00:48:39.560Z,21.60
2019-05-20T00:51:08.382Z,23.40
2019-05-20T00:53:37.161Z,20.73
2019-05-20T00:56:06.180Z,24.87
2019-05-20T00:58:34.987Z,20.63
2019-05-20T01:01:03.832Z,20.47
2019-05-20T01:03:32.685Z,19.00
2019-05-20T01:06:01.626Z,21.57
2019-05-20T01:08:30.404Z,17.20
2019-05-20T01:10:59.527Z,22.13
2019-05-20T01:13:28.659Z,21.77
2019-05-20T01:15:57.515Z,20.83
2019-05-20T01:18:26.322Z,17.73
2019-05-20T01:20:56.600Z,18.10
2019-05-20T01:23:25.420Z,71.10
2019-05-20T01:25:54.517Z,42.93
2019-05-20T01:28:23.412Z,20.53
2019-05-20T01:30:52.244Z,25.53
2019-05-20T01:33:21.167Z,25.70
2019-05-20T01:35:50.062Z,21.20
2019-05-20T01:38:18.961Z,21.50
2019-05-20T01:40:47.869Z,18.77
2019-05-20T01:43:16.764Z,21.97
2019-05-20T01:45:45.639Z,22.20
2019-05-20T01:48:14.545Z,24.43
2019-05-20T01:50:44.234Z,31.90
2019-05-20T01:53:13.148Z,124.37
2019-05-20T01:55:42.025Z,119.47
2019-05-20T01:58:10.912Z,83.33
2019-05-20T02:00:39.827Z,49.33
2019-05-20T02:03:08.717Z,70.37
2019-05-20T02:05:37.689Z,40.73
2019-05-20T02:08:06.423Z,52.33
2019-05-20T02:10:35.332Z,47.40
2019-05-20T02:13:04.218Z,34.23
2019-05-20T02:15:47.096Z,36.60
2019-05-20T02:18:15.994Z,34.93
2019-05-20T02:20:44.762Z,27.90
2019-05-20T02:23:15.114Z,32.70
2019-05-20T02:25:49.416Z,35.83
2019-05-20T02:28:18.319Z,34.47
2019-05-20T02:30:47.114Z,30.33
2019-05-20T02:33:15.976Z,34.43
2019-05-20T02:35:45.082Z,43.13
2019-05-20T02:38:13.872Z,49.53
2019-05-20T02:40:42.658Z,40.57
2019-05-20T02:43:11.748Z,66.90
2019-05-20T02:45:43.577Z,42.23
2019-05-20T02:48:12.534Z,33.27
2019-05-20T02:50:41.294Z,37.97
2019-05-20T02:53:10.304Z,39.07
2019-05-20T02:55:39.415Z,40.53
2019-05-20T02:58:08.276Z,44.63
2019-05-20T03:00:37.063Z,42.43
2019-05-20T03:03:05.879Z,39.20
2019-05-20T03:05:34.658Z,41.33
2019-05-20T03:08:03.597Z,42.37
2019-05-20T03:10:32.351Z,33.33
2019-05-20T03:13:01.304Z,39.20
2019-05-20T03:15:30.235Z,42.23
2019-05-20T03:17:59.527Z,41.37
2019-05-20T03:20:28.385Z,44.17
2019-05-20T03:22:57.436Z,45.53
2019-05-20T03:25:26.521Z,68.63
2019-05-20T03:27:55.415Z,24.60
2019-05-20T03:30:24.171Z,32.80
2019-05-20T03:32:53.196Z,38.60
2019-05-20T03:35:22.189Z,24.97
2019-05-20T03:37:50.996Z,36.63
2019-05-20T03:40:20.074Z,34.43
2019-05-20T03:42:48.787Z,33.00
2019-05-20T03:45:19.296Z,26.90
2019-05-20T03:47:48.186Z,37.07
2019-05-20T03:50:17.050Z,35.00
2019-05-20T03:52:45.797Z,39.67
2019-05-20T03:55:14.543Z,36.23
2019-05-20T03:57:43.550Z,39.80
2019-05-20T04:00:12.823Z,45.90
2019-05-20T04:02:41.585Z,51.00
2019-05-20T04:05:10.373Z,44.87
2019-05-20T04:07:39.297Z,44.73
2019-05-20T04:10:08.277Z,50.90
2019-05-20T04:12:37.077Z,49.37
2019-05-20T04:15:06.884Z,54.10
2019-05-20T04:17:35.700Z,48.20
2019-05-20T04:20:06.549Z,46.53
2019-05-20T04:22:35.442Z,45.80
2019-05-20T04:25:05.986Z,42.40
2019-05-20T04:27:34.812Z,46.87
2019-05-20T04:30:04.337Z,39.37
2019-05-20T04:32:33.116Z,36.20
2019-05-20T04:35:20.552Z,36.90
2019-05-20T04:37:34.049Z,33.90
2019-05-20T04:40:03.011Z,37.93
2019-05-20T04:42:31.810Z,32.93
2019-05-20T04:45:03.096Z,32.90
2019-05-20T04:47:31.798Z,31.40
2019-05-20T04:50:00.693Z,35.83
2019-05-20T04:52:29.519Z,31.97
2019-05-20T04:54:58.230Z,35.20
2019-05-20T04:57:26.964Z,31.63
2019-05-20T04:59:55.705Z,28.27
2019-05-20T05:02:24.610Z,27.03
2019-05-20T05:04:53.422Z,26.63
2019-05-20T05:07:26.862Z,29.73
2019-05-20T05:09:55.647Z,27.97
2019-05-20T05:12:24.366Z,26.43
2019-05-20T05:14:53.209Z,23.27
2019-05-20T05:17:22.090Z,25.03
2019-05-20T05:19:51.200Z,34.03
2019-05-20T05:22:20.107Z,28.57
2019-05-20T05:24:48.853Z,26.37
2019-05-20T05:27:17.636Z,21.83
2019-05-20T05:29:47.009Z,23.67
2019-05-20T05:32:17.616Z,21.60
2019-05-20T05:34:46.343Z,22.40
2019-05-20T05:37:15.265Z,21.47
2019-05-20T05:39:44.055Z,18.73
2019-05-20T05:42:13.997Z,17.27
2019-05-20T05:44:42.792Z,15.90
2019-05-20T05:47:11.798Z,13.80
2019-05-20T05:49:40.538Z,13.03
2019-05-20T05:52:09.684Z,15.00
2019-05-20T05:54:38.849Z,13.47
2019-05-20T05:57:07.872Z,13.80
2019-05-20T05:59:36.667Z,14.43
2019-05-20T06:02:05.459Z,13.30
2019-05-20T06:04:34.322Z,12.77
2019-05-20T06:07:03.144Z,14.33
2019-05-20T06:09:32.000Z,13.33
2019-05-20T06:12:00.886Z,13.40
2019-05-20T06:14:29.603Z,14.40
2019-05-20T06:16:58.463Z,13.97
2019-05-20T06:19:27.199Z,13.10
2019-05-20T06:21:56.051Z,13.40
2019-05-20T06:24:24.966Z,13.10
2019-05-20T06:26:54.082Z,12.87
2019-05-20T06:29:22.856Z,13.53
2019-05-20T06:31:51.633Z,12.93
2019-05-20T06:34:20.504Z,12.87
2019-05-20T06:36:54.414Z,12.70
2019-05-20T06:39:23.151Z,13.10
2019-05-20T06:41:51.927Z,14.57
2019-05-20T06:44:20.753Z,12.97
2019-05-20T06:46:49.577Z,13.40
2019-05-20T06:49:18.307Z,11.73
2019-05-20T06:51:47.131Z,11.33
2019-05-20T06:54:15.933Z,10.83
2019-05-20T06:56:44.930Z,11.80
2019-05-20T06:59:13.742Z,11.03
2019-05-20T07:01:42.920Z,10.90
2019-05-20T07:04:12.045Z,12.03
2019-05-20T07:06:46.482Z,12.13
2019-05-20T07:09:11.577Z,11.07
2019-05-20T07:11:40.468Z,11.87
2019-05-20T07:14:09.223Z,11.43
2019-05-20T07:16:38.083Z,10.57
2019-05-20T07:19:06.834Z,10.00
2019-05-20T07:21:35.831Z,10.40
2019-05-20T07:24:04.899Z,10.47
2019-05-20T07:26:33.818Z,11.20
2019-05-20T07:29:02.710Z,9.70
2019-05-20T07:31:31.566Z,9.97
2019-05-20T07:34:00.363Z,10.57
2019-05-20T07:36:29.236Z,9.37
2019-05-20T07:38:58.533Z,9.40
2019-05-20T07:41:27.586Z,8.90
2019-05-20T07:43:56.580Z,9.90
2019-05-20T07:46:25.533Z,9.43
2019-05-20T07:48:54.343Z,9.60
2019-05-20T07:51:24.138Z,10.70
2019-05-20T07:53:53.467Z,9.53
2019-05-20T07:56:28.098Z,9.20
2019-05-20T07:58:59.875Z,11.43
2019-05-20T08:01:28.761Z,9.23
2019-05-20T08:03:57.629Z,10.33
2019-05-20T08:06:26.609Z,9.80
2019-05-20T08:08:55.394Z,9.97
2019-05-20T08:11:24.180Z,9.67
2019-05-20T08:13:52.990Z,9.50
2019-05-20T08:16:21.838Z,9.33
2019-05-20T08:18:50.649Z,8.83
2019-05-20T08:21:19.542Z,9.53
2019-05-20T08:23:50.282Z,10.53
2019-05-20T08:26:18.900Z,10.07
2019-05-20T08:28:47.667Z,9.53
2019-05-20T08:31:16.640Z,9.87
2019-05-20T08:33:45.560Z,9.93
2019-05-20T08:36:14.599Z,10.27
2019-05-20T08:38:43.582Z,10.73
2019-05-20T08:41:12.457Z,12.63
2019-05-20T08:43:41.553Z,11.67
2019-05-20T08:46:10.580Z,11.00
2019-05-20T08:48:39.546Z,11.37
2019-05-20T08:51:08.325Z,11.00
2019-05-20T08:53:37.189Z,11.37
2019-05-20T08:56:06.004Z,10.70
2019-05-20T08:58:34.730Z,12.00
2019-05-20T09:01:03.903Z,11.33
2019-05-20T09:03:32.855Z,12.10
2019-05-20T09:06:01.746Z,11.97
2019-05-20T09:08:30.786Z,11.97
2019-05-20T09:10:59.757Z,11.13
2019-05-20T09:13:30.344Z,10.80
2019-05-20T09:15:59.367Z,12.40
2019-05-20T09:18:28.261Z,12.83
2019-05-20T09:20:57.189Z,11.50
2019-05-20T09:23:26.458Z,11.73
2019-05-20T09:25:55.353Z,11.70
2019-05-20T09:28:24.300Z,11.17
2019-05-20T09:30:53.882Z,12.17
2019-05-20T09:33:22.877Z,11.80
2019-05-20T09:35:51.687Z,12.97
2019-05-20T09:38:21.451Z,12.73
2019-05-20T09:40:51.055Z,11.60
2019-05-20T09:43:20.181Z,12.27
2019-05-20T09:46:05.655Z,11.90
2019-05-20T09:48:19.483Z,11.87
2019-05-20T09:50:48.702Z,12.63
2019-05-20T09:53:17.947Z,13.30
2019-05-20T09:55:47.973Z,13.60
2019-05-20T09:58:17.030Z,12.87
2019-05-20T10:00:47.490Z,12.57
2019-05-20T10:03:16.641Z,12.83
2019-05-20T10:05:45.368Z,11.27
2019-05-20T10:08:14.431Z,13.80
2019-05-20T10:10:43.125Z,13.27
2019-05-20T10:13:11.999Z,13.40
2019-05-20T10:15:41.306Z,12.77
2019-05-20T10:18:10.197Z,13.10
2019-05-20T10:20:38.945Z,12.77
2019-05-20T10:23:07.810Z,11.20
2019-05-20T10:25:36.876Z,13.07
2019-05-20T10:28:05.925Z,13.43
2019-05-20T10:30:34.913Z,13.97
2019-05-20T10:33:09.890Z,12.53
2019-05-20T10:35:34.116Z,12.50
2019-05-20T10:38:03.046Z,12.97
2019-05-20T10:40:32.029Z,12.20
2019-05-20T10:43:01.065Z,12.83
2019-05-20T10:45:29.975Z,13.83
2019-05-20T10:47:58.809Z,13.13
2019-05-20T10:50:27.853Z,14.43
2019-05-20T10:52:56.702Z,13.33
2019-05-20T10:55:25.648Z,14.00
2019-05-20T10:57:54.577Z,12.93
2019-05-20T11:00:23.848Z,14.20
2019-05-20T11:02:54.431Z,13.93
2019-05-20T11:05:23.471Z,14.23
2019-05-20T11:07:52.530Z,13.00
2019-05-20T11:10:21.817Z,13.87
2019-05-20T11:12:50.704Z,14.10
2019-05-20T11:15:19.559Z,13.17
2019-05-20T11:17:48.520Z,13.43
2019-05-20T11:20:17.619Z,15.27
2019-05-20T11:22:47.276Z,14.60
2019-05-20T11:25:16.417Z,13.83
2019-05-20T11:27:46.859Z,14.17
2019-05-20T11:30:16.048Z,15.10
2019-05-20T11:32:45.129Z,15.93
2019-05-20T11:35:14.176Z,16.13
2019-05-20T11:37:43.138Z,15.23
2019-05-20T11:40:14.050Z,16.50
2019-05-20T11:42:43.236Z,16.07
2019-05-20T11:45:14.318Z,18.60
2019-05-20T11:47:45.252Z,16.83
2019-05-20T11:50:14.312Z,12.77
2019-05-20T11:52:43.250Z,15.13
2019-05-20T11:55:12.226Z,15.40
2019-05-20T11:57:41.117Z,12.57
2019-05-20T12:00:12.198Z,13.27
2019-05-20T12:02:40.949Z,13.60
2019-05-20T12:05:10.782Z,14.10
2019-05-20T12:07:39.570Z,13.40
2019-05-20T12:10:09.504Z,12.83
2019-05-20T12:12:38.478Z,11.83
2019-05-20T12:15:08.872Z,12.07
2019-05-20T12:17:38.676Z,12.17
2019-05-20T12:20:11.965Z,10.47
2019-05-20T12:22:41.424Z,9.90
2019-05-20T12:25:10.689Z,10.87
2019-05-20T12:27:40.026Z,9.60
2019-05-20T12:30:09.639Z,9.97
2019-05-20T12:32:38.504Z,10.10
2019-05-20T12:35:08.008Z,10.93
2019-05-20T12:37:37.027Z,10.43
2019-05-20T12:40:08.143Z,10.23
2019-05-20T12:42:37.460Z,11.60
2019-05-20T12:45:07.942Z,10.73
2019-05-20T12:47:36.675Z,11.17
2019-05-20T12:50:06.643Z,7.67
2019-05-20T12:52:35.402Z,8.23
2019-05-20T12:55:08.649Z,9.13
2019-05-20T12:57:36.050Z,9.53
2019-05-20T13:00:12.414Z,9.60
2019-05-20T13:02:43.350Z,8.07
2019-05-20T13:05:12.897Z,7.77
2019-05-20T13:07:41.721Z,10.57
2019-05-20T13:10:27.609Z,10.43
2019-05-20T13:12:42.002Z,7.33
2019-05-20T13:15:12.329Z,11.63
2019-05-20T13:17:44.621Z,12.27
2019-05-20T13:20:11.980Z,13.10
2019-05-20T13:22:41.047Z,12.97
2019-05-20T13:25:09.987Z,13.60
2019-05-20T13:27:38.824Z,12.03
2019-05-20T13:30:10.066Z,13.33
2019-05-20T13:32:39.067Z,10.07
2019-05-20T13:35:09.282Z,16.23
2019-05-20T13:37:38.144Z,14.97
2019-05-20T13:40:08.000Z,14.23
2019-05-20T13:42:37.672Z,14.60
2019-05-20T13:45:07.289Z,13.23
2019-05-20T13:47:36.309Z,17.10
2019-05-20T13:50:07.635Z,17.10
2019-05-20T13:56:56.660Z,12.67
2019-05-20T13:59:25.532Z,17.17
2019-05-20T14:01:54.588Z,14.77
2019-05-20T14:04:23.299Z,20.43
2019-05-20T14:06:52.604Z,19.90
2019-05-20T14:09:21.520Z,15.93
2019-05-20T14:11:50.412Z,18.13
2019-05-20T14:14:19.305Z,18.97
2019-05-20T14:16:48.185Z,14.07
2019-05-20T14:19:22.391Z,21.03
2019-05-20T14:21:49.056Z,20.97
2019-05-20T14:24:18.029Z,19.97
2019-05-20T14:26:47.040Z,18.73
2019-05-20T14:29:15.877Z,17.90
2019-05-20T14:31:44.823Z,20.10
2019-05-20T14:34:13.715Z,20.57
2019-05-20T14:36:42.885Z,23.63
2019-05-20T14:39:11.707Z,23.37
2019-05-20T14:41:40.601Z,22.10
2019-05-20T14:44:09.696Z,22.43
2019-05-20T14:46:38.794Z,28.60
2019-05-20T14:49:07.694Z,27.43
2019-05-20T14:51:39.843Z,25.70
2019-05-20T14:54:08.653Z,25.53
2019-05-20T14:56:37.637Z,26.27
2019-05-20T14:59:06.409Z,29.27
2019-05-20T15:01:35.300Z,24.67
2019-05-20T15:04:04.222Z,27.87
2019-05-20T15:06:35.317Z,27.80
2019-05-20T15:09:06.943Z,29.30
2019-05-20T15:11:38.477Z,27.27
2019-05-20T15:14:07.873Z,30.73
2019-05-20T15:16:42.902Z,33.33
2019-05-20T15:19:07.294Z,30.27
2019-05-20T15:21:36.391Z,34.93
2019-05-20T15:24:05.350Z,30.37
2019-05-20T15:26:34.375Z,39.03
2019-05-20T15:29:04.177Z,41.47
2019-05-20T15:31:33.804Z,36.17
2019-05-20T15:34:02.837Z,33.60
2019-05-20T15:36:31.788Z,36.87
2019-05-20T15:39:01.226Z,30.60
2019-05-20T15:41:30.483Z,27.30
2019-05-20T15:44:01.352Z,27.93
2019-05-20T15:46:30.119Z,31.57
2019-05-20T15:48:59.015Z,14.73
2019-05-20T15:51:28.110Z,17.53
2019-05-20T15:53:56.993Z,15.70
2019-05-20T15:56:25.893Z,15.67
2019-05-20T15:58:54.787Z,13.50
2019-05-20T16:01:23.649Z,13.00
2019-05-20T16:03:52.569Z,14.07
2019-05-20T16:06:21.441Z,10.53
2019-05-20T16:08:50.445Z,11.47
2019-05-20T16:11:19.314Z,11.50
2019-05-20T16:13:48.339Z,8.57
2019-05-20T16:16:17.641Z,6.40
2019-05-20T16:18:46.536Z,6.27
2019-05-20T16:21:15.271Z,8.23
2019-05-20T16:23:44.525Z,8.00
2019-05-20T16:26:13.417Z,10.00
2019-05-20T16:28:42.308Z,11.90
2019-05-20T16:31:11.042Z,9.40
2019-05-20T16:33:39.999Z,9.20
2019-05-20T16:36:09.194Z,8.67
2019-05-20T16:38:38.048Z,10.33
2019-05-20T16:41:07.214Z,8.37
2019-05-20T16:43:36.128Z,8.10
2019-05-20T16:46:05.876Z,8.13
2019-05-20T16:48:34.711Z,7.80
2019-05-20T16:51:03.466Z,7.63
2019-05-20T16:53:32.656Z,7.90
2019-05-20T16:56:01.588Z,7.70
2019-05-20T16:58:30.407Z,7.73
2019-05-20T17:00:59.333Z,8.97
2019-05-20T17:03:28.096Z,7.83
2019-05-20T17:05:57.120Z,8.50
2019-05-20T17:08:26.013Z,9.20
2019-05-20T17:10:54.928Z,8.43
2019-05-20T17:13:23.898Z,8.10
2019-05-20T17:15:53.103Z,7.37
2019-05-20T17:18:22.063Z,8.13
2019-05-20T17:20:51.071Z,7.93
2019-05-20T17:23:20.182Z,7.77
2019-05-20T17:25:50.781Z,8.53
2019-05-20T17:28:20.138Z,8.67
2019-05-20T17:30:49.328Z,8.33
2019-05-20T17:33:18.301Z,8.40
2019-05-20T17:35:47.412Z,10.13
2019-05-20T17:38:16.510Z,9.33
2019-05-20T17:40:47.038Z,9.23
2019-05-20T17:43:16.072Z,9.83
2019-05-20T17:45:44.997Z,7.13
2019-05-20T17:48:14.994Z,9.67
2019-05-20T17:50:44.240Z,11.33
2019-05-20T17:53:13.343Z,10.23
2019-05-20T17:55:42.642Z,10.07
2019-05-20T17:58:11.939Z,8.53
2019-05-20T18:00:41.256Z,11.27
2019-05-20T18:03:10.340Z,9.77
2019-05-20T18:05:39.748Z,9.60
2019-05-20T18:08:08.945Z,8.03
2019-05-20T18:10:38.452Z,8.80
2019-05-20T18:13:07.851Z,10.00
2019-05-20T18:15:36.846Z,9.63
2019-05-20T18:18:05.694Z,8.63
2019-05-20T18:20:34.923Z,8.77
2019-05-20T18:23:03.936Z,9.33
2019-05-20T18:25:33.031Z,9.00
2019-05-20T18:28:02.157Z,10.47
2019-05-20T18:30:31.223Z,9.43
2019-05-20T18:33:00.320Z,8.17
2019-05-20T18:35:30.009Z,8.73
2019-05-20T18:37:59.331Z,8.73
2019-05-20T18:40:28.428Z,10.03
2019-05-20T18:42:57.523Z,8.00
2019-05-20T18:45:26.800Z,9.43
2019-05-20T18:47:58.585Z,9.57
2019-05-20T18:50:27.786Z,8.83
2019-05-20T18:52:56.886Z,7.70
2019-05-20T18:55:26.079Z,8.60
2019-05-20T18:57:55.288Z,8.40
2019-05-20T19:00:24.947Z,8.20
2019-05-20T19:02:54.100Z,8.70
2019-05-20T19:05:22.905Z,7.57
2019-05-20T19:07:52.091Z,8.03
2019-05-20T19:10:21.161Z,6.97
2019-05-20T19:12:50.681Z,7.70
2019-05-20T19:15:19.813Z,6.03
2019-05-20T19:17:48.882Z,7.30
2019-05-20T19:20:18.176Z,7.90
2019-05-20T19:22:48.507Z,8.10
2019-05-20T19:25:17.625Z,7.63
2019-05-20T19:27:46.456Z,8.00
2019-05-20T19:30:15.834Z,8.20
2019-05-20T19:32:44.757Z,9.10
2019-05-20T19:35:13.589Z,7.73
2019-05-20T19:37:42.507Z,8.27
2019-05-20T19:40:11.870Z,8.17
2019-05-20T19:42:40.722Z,7.23
2019-05-20T19:45:09.852Z,7.30
2019-05-20T19:47:39.125Z,8.30
2019-05-20T19:50:09.399Z,5.73
2019-05-20T19:52:38.205Z,7.73
2019-05-20T19:55:09.015Z,9.10
2019-05-20T19:57:37.762Z,7.93
2019-05-20T20:00:08.639Z,8.07
2019-05-20T20:02:37.485Z,9.80
2019-05-20T20:05:08.273Z,10.20
2019-05-20T20:07:37.157Z,9.97
2019-05-20T20:10:09.127Z,10.30
2019-05-20T20:12:38.015Z,12.47
2019-05-20T20:15:07.598Z,11.67
2019-05-20T20:17:36.486Z,10.97
2019-05-20T20:20:06.823Z,11.50
2019-05-20T20:22:35.861Z,11.53
2019-05-20T20:25:06.292Z,11.00
2019-05-20T20:27:35.463Z,12.30
2019-05-20T20:30:08.042Z,11.03
2019-05-20T20:32:38.665Z,12.17
2019-05-20T20:35:08.286Z,12.63
2019-05-20T20:37:37.171Z,13.07
2019-05-20T20:40:06.226Z,12.53
2019-05-20T20:42:35.169Z,12.10
2019-05-20T20:45:04.675Z,10.80
2019-05-20T20:47:41.173Z,11.97
2019-05-20T20:50:05.152Z,10.80
2019-05-20T20:52:34.024Z,13.03
2019-05-20T20:55:03.071Z,9.73
2019-05-20T20:57:31.981Z,11.13
2019-05-20T21:00:01.126Z,10.93
2019-05-20T21:02:29.992Z,10.97
2019-05-20T21:04:59.063Z,10.43
2019-05-20T21:07:27.961Z,10.67
2019-05-20T21:09:56.862Z,10.83
2019-05-20T21:12:25.628Z,9.87
2019-05-20T21:14:54.651Z,10.10
2019-05-20T21:17:23.543Z,11.43
2019-05-20T21:19:52.253Z,10.87
2019-05-20T21:22:21.203Z,9.63
2019-05-20T21:24:50.015Z,11.10
2019-05-20T21:27:18.767Z,11.10
2019-05-20T21:29:47.793Z,9.47
2019-05-20T21:32:16.696Z,11.20
2019-05-20T21:34:45.504Z,11.30
2019-05-20T21:37:14.469Z,9.77
2019-05-20T21:39:43.198Z,10.87
2019-05-20T21:42:12.150Z,10.77
2019-05-20T21:44:41.048Z,11.50
2019-05-20T21:47:10.911Z,12.20
2019-05-20T21:49:39.855Z,11.33
2019-05-20T21:52:10.152Z,12.07
2019-05-20T21:54:39.063Z,13.37
2019-05-20T21:57:07.928Z,11.37
2019-05-20T21:59:37.984Z,12.33
2019-05-20T22:02:06.976Z,13.03
2019-05-20T22:04:36.077Z,10.47
2019-05-20T22:07:05.080Z,12.40
2019-05-20T22:09:34.959Z,11.60
2019-05-20T22:12:03.730Z,11.67
2019-05-20T22:14:32.607Z,11.70
2019-05-20T22:17:01.563Z,9.57
2019-05-20T22:19:30.451Z,10.30
2019-05-20T22:22:00.891Z,11.00
2019-05-20T22:24:29.748Z,10.73
2019-05-20T22:26:58.545Z,11.83
2019-05-20T22:29:27.430Z,11.47
2019-05-20T22:31:56.240Z,12.33
2019-05-20T22:34:25.127Z,11.20
2019-05-20T22:36:53.991Z,13.80
2019-05-20T22:39:23.009Z,12.53
2019-05-20T22:41:51.807Z,12.10
2019-05-20T22:44:20.659Z,14.53
2019-05-20T22:46:49.436Z,10.63
2019-05-20T22:49:18.254Z,13.40
2019-05-20T22:51:47.169Z,12.07
2019-05-20T22:54:16.502Z,12.53
2019-05-20T22:56:45.472Z,14.10
2019-05-20T22:59:14.464Z,13.43
2019-05-20T23:01:43.352Z,13.77
2019-05-20T23:04:12.315Z,12.23
2019-05-20T23:06:41.442Z,14.03
2019-05-20T23:09:10.999Z,11.80
2019-05-20T23:11:40.232Z,12.20
2019-05-20T23:14:09.358Z,13.50
2019-05-20T23:16:38.237Z,14.27
2019-05-20T23:19:07.064Z,15.63
2019-05-20T23:21:35.897Z,15.27
2019-05-20T23:24:04.708Z,14.97
2019-05-20T23:26:33.518Z,12.47
2019-05-20T23:29:02.498Z,14.60
2019-05-20T23:31:31.465Z,14.23
2019-05-20T23:34:12.354Z,14.07
2019-05-20T23:36:30.810Z,13.47
2019-05-20T23:38:59.699Z,12.47
2019-05-20T23:41:28.662Z,13.07
2019-05-20T23:43:57.689Z,13.63
2019-05-20T23:46:26.581Z,13.10
2019-05-20T23:48:55.477Z,11.97
2019-05-20T23:51:26.175Z,11.43
2019-05-20T23:53:55.286Z,11.83
2019-05-20T23:56:24.198Z,12.03
2019-05-20T23:58:53.086Z,12.07
